sensor_id;sensor_type;location;lat;lon;timestamp;P1;durP1;ratioP1;P2;durP2;ratioP2
21886;SDS011;11108;49.988;8.182;2023-04-24T00:00:10;8.00;;;7.17;;
21886;SDS011;11108;49.988;8.182;2023-04-24T00:02:37;7.93;;;7.23;;
21886;SDS011;11108;49.988;8.182;2023-04-24T00:05:04;7.53;;;6.83;;
21886;SDS011;11108;49.988;8.182;2023-04-24T00:07:29;7.63;;;7.03;;
21886;SDS011;11108;49.988;8.182;2023-04-24T00:09:55;7.10;;;6.57;;
21886;SDS011;11108;49.988;8.182;2023-04-24T00:12:20;7.83;;;7.13;;
21886;SDS011;11108;49.988;8.182;2023-04-24T00:14:45;7.20;;;6.63;;
21886;SDS011;11108;49.988;8.182;2023-04-24T00:17:10;7.10;;;6.50;;
21886;SDS011;11108;49.988;8.182;2023-04-24T00:19:36;7.47;;;6.80;;
21886;SDS011;11108;49.988;8.182;2023-04-24T00:22:01;6.87;;;6.27;;
21886;SDS011;11108;49.988;8.182;2023-04-24T00:24:27;6.43;;;5.93;;
21886;SDS011;11108;49.988;8.182;2023-04-24T00:26:52;7.20;;;6.47;;
21886;SDS011;11108;49.988;8.182;2023-04-24T00:29:17;6.87;;;6.37;;
21886;SDS011;11108;49.988;8.182;2023-04-24T00:31:43;6.33;;;5.83;;
21886;SDS011;11108;49.988;8.182;2023-04-24T00:34:08;6.60;;;6.03;;
21886;SDS011;11108;49.988;8.182;2023-04-24T00:36:33;7.00;;;6.40;;
21886;SDS011;11108;49.988;8.182;2023-04-24T00:38:58;7.07;;;6.37;;
21886;SDS011;11108;49.988;8.182;2023-04-24T00:41:24;7.07;;;6.53;;
21886;SDS011;11108;49.988;8.182;2023-04-24T00:43:49;5.97;;;5.47;;
21886;SDS011;11108;49.988;8.182;2023-04-24T00:46:14;5.77;;;5.37;;
21886;SDS011;11108;49.988;8.182;2023-04-24T00:48:40;6.37;;;5.87;;
21886;SDS011;11108;49.988;8.182;2023-04-24T00:51:06;6.00;;;5.50;;
21886;SDS011;11108;49.988;8.182;2023-04-24T00:53:31;5.87;;;5.37;;
21886;SDS011;11108;49.988;8.182;2023-04-24T00:55:57;5.70;;;5.20;;
21886;SDS011;11108;49.988;8.182;2023-04-24T00:58:22;5.97;;;5.47;;
21886;SDS011;11108;49.988;8.182;2023-04-24T01:00:48;5.37;;;4.87;;
21886;SDS011;11108;49.988;8.182;2023-04-24T01:03:14;5.93;;;5.43;;
21886;SDS011;11108;49.988;8.182;2023-04-24T01:05:39;6.00;;;5.47;;
21886;SDS011;11108;49.988;8.182;2023-04-24T01:08:04;5.50;;;5.00;;
21886;SDS011;11108;49.988;8.182;2023-04-24T01:10:29;5.40;;;5.00;;
21886;SDS011;11108;49.988;8.182;2023-04-24T01:12:56;5.40;;;5.00;;
21886;SDS011;11108;49.988;8.182;2023-04-24T01:15:21;5.50;;;5.00;;
21886;SDS011;11108;49.988;8.182;2023-04-24T01:17:46;5.23;;;4.83;;
21886;SDS011;11108;49.988;8.182;2023-04-24T01:20:12;5.20;;;4.70;;
21886;SDS011;11108;49.988;8.182;2023-04-24T01:22:37;5.10;;;4.57;;
21886;SDS011;11108;49.988;8.182;2023-04-24T01:25:03;5.30;;;4.90;;
21886;SDS011;11108;49.988;8.182;2023-04-24T01:27:28;5.10;;;4.70;;
21886;SDS011;11108;49.988;8.182;2023-04-24T01:29:53;4.80;;;4.50;;
21886;SDS011;11108;49.988;8.182;2023-04-24T01:32:19;4.40;;;4.10;;
21886;SDS011;11108;49.988;8.182;2023-04-24T01:34:45;5.07;;;4.57;;
21886;SDS011;11108;49.988;8.182;2023-04-24T01:37:10;4.80;;;4.40;;
21886;SDS011;11108;49.988;8.182;2023-04-24T01:39:35;4.10;;;3.80;;
21886;SDS011;11108;49.988;8.182;2023-04-24T01:42:01;4.73;;;4.33;;
21886;SDS011;11108;49.988;8.182;2023-04-24T01:44:27;4.50;;;4.07;;
21886;SDS011;11108;49.988;8.182;2023-04-24T01:46:52;4.67;;;4.37;;
21886;SDS011;11108;49.988;8.182;2023-04-24T01:49:19;4.70;;;4.30;;
21886;SDS011;11108;49.988;8.182;2023-04-24T01:51:44;4.00;;;3.70;;
21886;SDS011;11108;49.988;8.182;2023-04-24T01:54:09;4.67;;;4.27;;
21886;SDS011;11108;49.988;8.182;2023-04-24T01:56:35;4.57;;;4.27;;
21886;SDS011;11108;49.988;8.182;2023-04-24T01:59:00;4.30;;;4.00;;
21886;SDS011;11108;49.988;8.182;2023-04-24T02:01:27;3.97;;;3.67;;
21886;SDS011;11108;49.988;8.182;2023-04-24T02:03:57;4.00;;;3.73;;
21886;SDS011;11108;49.988;8.182;2023-04-24T02:06:22;4.10;;;3.80;;
21886;SDS011;11108;49.988;8.182;2023-04-24T02:08:48;3.67;;;3.43;;
21886;SDS011;11108;49.988;8.182;2023-04-24T02:11:13;4.07;;;3.77;;
21886;SDS011;11108;49.988;8.182;2023-04-24T02:13:39;4.03;;;3.73;;
21886;SDS011;11108;49.988;8.182;2023-04-24T02:16:04;4.40;;;4.00;;
21886;SDS011;11108;49.988;8.182;2023-04-24T02:18:29;3.90;;;3.50;;
21886;SDS011;11108;49.988;8.182;2023-04-24T02:20:55;3.90;;;3.37;;
21886;SDS011;11108;49.988;8.182;2023-04-24T02:23:20;3.73;;;3.50;;
21886;SDS011;11108;49.988;8.182;2023-04-24T02:25:45;3.80;;;3.50;;
21886;SDS011;11108;49.988;8.182;2023-04-24T02:28:10;3.43;;;3.23;;
21886;SDS011;11108;49.988;8.182;2023-04-24T02:30:36;3.80;;;3.50;;
21886;SDS011;11108;49.988;8.182;2023-04-24T02:33:01;3.00;;;2.80;;
21886;SDS011;11108;49.988;8.182;2023-04-24T02:35:26;3.90;;;3.60;;
21886;SDS011;11108;49.988;8.182;2023-04-24T02:37:51;3.83;;;3.53;;
21886;SDS011;11108;49.988;8.182;2023-04-24T02:40:17;3.50;;;3.20;;
21886;SDS011;11108;49.988;8.182;2023-04-24T02:42:42;3.63;;;3.43;;
21886;SDS011;11108;49.988;8.182;2023-04-24T02:45:07;3.50;;;3.30;;
21886;SDS011;11108;49.988;8.182;2023-04-24T02:47:32;3.40;;;3.13;;
21886;SDS011;11108;49.988;8.182;2023-04-24T02:49:57;3.40;;;3.20;;
21886;SDS011;11108;49.988;8.182;2023-04-24T02:52:23;3.13;;;2.93;;
21886;SDS011;11108;49.988;8.182;2023-04-24T02:54:48;3.10;;;2.90;;
21886;SDS011;11108;49.988;8.182;2023-04-24T02:57:13;2.80;;;2.60;;
21886;SDS011;11108;49.988;8.182;2023-04-24T02:59:38;3.10;;;2.90;;
21886;SDS011;11108;49.988;8.182;2023-04-24T03:02:03;3.03;;;2.83;;
21886;SDS011;11108;49.988;8.182;2023-04-24T03:04:29;3.30;;;3.10;;
21886;SDS011;11108;49.988;8.182;2023-04-24T03:06:54;2.93;;;2.77;;
21886;SDS011;11108;49.988;8.182;2023-04-24T03:09:20;3.13;;;2.93;;
21886;SDS011;11108;49.988;8.182;2023-04-24T03:11:45;3.10;;;2.90;;
21886;SDS011;11108;49.988;8.182;2023-04-24T03:14:10;2.90;;;2.70;;
21886;SDS011;11108;49.988;8.182;2023-04-24T03:16:35;3.17;;;2.97;;
21886;SDS011;11108;49.988;8.182;2023-04-24T03:19:01;2.90;;;2.70;;
21886;SDS011;11108;49.988;8.182;2023-04-24T03:21:26;3.00;;;2.80;;
21886;SDS011;11108;49.988;8.182;2023-04-24T03:23:51;2.93;;;2.73;;
21886;SDS011;11108;49.988;8.182;2023-04-24T03:26:16;2.90;;;2.70;;
21886;SDS011;11108;49.988;8.182;2023-04-24T03:28:42;2.87;;;2.77;;
21886;SDS011;11108;49.988;8.182;2023-04-24T03:31:07;3.00;;;2.80;;
21886;SDS011;11108;49.988;8.182;2023-04-24T03:33:32;2.73;;;2.63;;
21886;SDS011;11108;49.988;8.182;2023-04-24T03:35:58;2.70;;;2.50;;
21886;SDS011;11108;49.988;8.182;2023-04-24T03:38:23;2.70;;;2.50;;
21886;SDS011;11108;49.988;8.182;2023-04-24T03:40:48;2.63;;;2.47;;
21886;SDS011;11108;49.988;8.182;2023-04-24T03:43:13;2.60;;;2.50;;
21886;SDS011;11108;49.988;8.182;2023-04-24T03:45:38;2.60;;;2.43;;
21886;SDS011;11108;49.988;8.182;2023-04-24T03:48:03;2.70;;;2.50;;
21886;SDS011;11108;49.988;8.182;2023-04-24T03:50:29;2.50;;;2.30;;
21886;SDS011;11108;49.988;8.182;2023-04-24T03:52:54;2.60;;;2.40;;
21886;SDS011;11108;49.988;8.182;2023-04-24T03:55:19;2.90;;;2.70;;
21886;SDS011;11108;49.988;8.182;2023-04-24T03:57:44;2.83;;;2.63;;
21886;SDS011;11108;49.988;8.182;2023-04-24T04:00:10;2.93;;;2.73;;
21886;SDS011;11108;49.988;8.182;2023-04-24T04:02:35;2.30;;;2.20;;
21886;SDS011;11108;49.988;8.182;2023-04-24T04:05:01;2.87;;;2.67;;
21886;SDS011;11108;49.988;8.182;2023-04-24T04:07:26;2.37;;;2.27;;
21886;SDS011;11108;49.988;8.182;2023-04-24T04:09:52;2.33;;;2.13;;
21886;SDS011;11108;49.988;8.182;2023-04-24T04:12:17;2.70;;;2.50;;
21886;SDS011;11108;49.988;8.182;2023-04-24T04:14:42;2.50;;;2.30;;
21886;SDS011;11108;49.988;8.182;2023-04-24T04:17:07;2.20;;;2.10;;
21886;SDS011;11108;49.988;8.182;2023-04-24T04:19:33;2.23;;;2.10;;
21886;SDS011;11108;49.988;8.182;2023-04-24T04:21:58;1.90;;;1.80;;
21886;SDS011;11108;49.988;8.182;2023-04-24T04:24:24;2.17;;;2.07;;
21886;SDS011;11108;49.988;8.182;2023-04-24T04:26:49;2.13;;;2.03;;
21886;SDS011;11108;49.988;8.182;2023-04-24T04:29:16;2.20;;;2.10;;
21886;SDS011;11108;49.988;8.182;2023-04-24T04:31:41;2.40;;;2.23;;
21886;SDS011;11108;49.988;8.182;2023-04-24T04:34:06;2.00;;;1.90;;
21886;SDS011;11108;49.988;8.182;2023-04-24T04:36:32;2.27;;;2.10;;
21886;SDS011;11108;49.988;8.182;2023-04-24T04:39:01;2.13;;;2.03;;
21886;SDS011;11108;49.988;8.182;2023-04-24T04:41:27;2.03;;;1.93;;
21886;SDS011;11108;49.988;8.182;2023-04-24T04:43:52;2.20;;;2.10;;
21886;SDS011;11108;49.988;8.182;2023-04-24T04:46:18;2.20;;;2.10;;
21886;SDS011;11108;49.988;8.182;2023-04-24T04:48:43;2.03;;;1.93;;
21886;SDS011;11108;49.988;8.182;2023-04-24T04:51:08;1.90;;;1.80;;
21886;SDS011;11108;49.988;8.182;2023-04-24T04:53:33;2.10;;;1.90;;
21886;SDS011;11108;49.988;8.182;2023-04-24T04:55:59;2.03;;;1.93;;
21886;SDS011;11108;49.988;8.182;2023-04-24T04:58:24;2.10;;;2.00;;
21886;SDS011;11108;49.988;8.182;2023-04-24T05:00:50;1.87;;;1.77;;
21886;SDS011;11108;49.988;8.182;2023-04-24T05:03:15;1.73;;;1.63;;
21886;SDS011;11108;49.988;8.182;2023-04-24T05:05:40;2.17;;;2.07;;
21886;SDS011;11108;49.988;8.182;2023-04-24T05:08:06;1.70;;;1.60;;
21886;SDS011;11108;49.988;8.182;2023-04-24T05:10:32;2.07;;;1.97;;
21886;SDS011;11108;49.988;8.182;2023-04-24T05:12:57;2.10;;;2.00;;
21886;SDS011;11108;49.988;8.182;2023-04-24T05:15:22;2.00;;;1.87;;
21886;SDS011;11108;49.988;8.182;2023-04-24T05:17:47;1.73;;;1.63;;
21886;SDS011;11108;49.988;8.182;2023-04-24T05:20:12;2.03;;;1.90;;
21886;SDS011;11108;49.988;8.182;2023-04-24T05:22:38;2.00;;;1.90;;
21886;SDS011;11108;49.988;8.182;2023-04-24T05:25:03;1.73;;;1.63;;
21886;SDS011;11108;49.988;8.182;2023-04-24T05:27:28;1.77;;;1.67;;
21886;SDS011;11108;49.988;8.182;2023-04-24T05:29:53;1.60;;;1.50;;
21886;SDS011;11108;49.988;8.182;2023-04-24T05:32:19;1.80;;;1.70;;
21886;SDS011;11108;49.988;8.182;2023-04-24T05:34:44;1.90;;;1.80;;
21886;SDS011;11108;49.988;8.182;2023-04-24T05:37:09;1.57;;;1.47;;
21886;SDS011;11108;49.988;8.182;2023-04-24T05:39:35;1.60;;;1.50;;
21886;SDS011;11108;49.988;8.182;2023-04-24T05:42:00;1.80;;;1.70;;
21886;SDS011;11108;49.988;8.182;2023-04-24T05:44:26;1.20;;;1.20;;
21886;SDS011;11108;49.988;8.182;2023-04-24T05:46:51;1.70;;;1.60;;
21886;SDS011;11108;49.988;8.182;2023-04-24T05:49:16;1.90;;;1.70;;
21886;SDS011;11108;49.988;8.182;2023-04-24T05:51:41;1.70;;;1.60;;
21886;SDS011;11108;49.988;8.182;2023-04-24T05:54:07;1.70;;;1.60;;
21886;SDS011;11108;49.988;8.182;2023-04-24T05:56:32;1.90;;;1.80;;
21886;SDS011;11108;49.988;8.182;2023-04-24T05:58:57;1.63;;;1.57;;
21886;SDS011;11108;49.988;8.182;2023-04-24T06:01:22;1.87;;;1.77;;
21886;SDS011;11108;49.988;8.182;2023-04-24T06:03:48;1.57;;;1.53;;
21886;SDS011;11108;49.988;8.182;2023-04-24T06:06:13;1.83;;;1.73;;
21886;SDS011;11108;49.988;8.182;2023-04-24T06:08:38;1.80;;;1.70;;
21886;SDS011;11108;49.988;8.182;2023-04-24T06:11:04;1.67;;;1.67;;
21886;SDS011;11108;49.988;8.182;2023-04-24T06:13:29;1.83;;;1.50;;
21886;SDS011;11108;49.988;8.182;2023-04-24T06:15:54;1.50;;;1.40;;
21886;SDS011;11108;49.988;8.182;2023-04-24T06:18:19;1.30;;;1.30;;
21886;SDS011;11108;49.988;8.182;2023-04-24T06:20:45;1.63;;;1.53;;
21886;SDS011;11108;49.988;8.182;2023-04-24T06:23:10;1.30;;;1.30;;
21886;SDS011;11108;49.988;8.182;2023-04-24T06:25:36;1.57;;;1.47;;
21886;SDS011;11108;49.988;8.182;2023-04-24T06:28:01;1.47;;;1.47;;
21886;SDS011;11108;49.988;8.182;2023-04-24T06:30:27;1.50;;;1.40;;
21886;SDS011;11108;49.988;8.182;2023-04-24T06:32:53;1.40;;;1.40;;
21886;SDS011;11108;49.988;8.182;2023-04-24T06:35:18;1.70;;;1.60;;
21886;SDS011;11108;49.988;8.182;2023-04-24T06:37:43;2.30;;;1.50;;
21886;SDS011;11108;49.988;8.182;2023-04-24T06:40:08;1.63;;;1.60;;
21886;SDS011;11108;49.988;8.182;2023-04-24T06:42:34;1.30;;;1.30;;
21886;SDS011;11108;49.988;8.182;2023-04-24T06:45:00;1.63;;;1.53;;
21886;SDS011;11108;49.988;8.182;2023-04-24T06:47:25;1.50;;;1.50;;
21886;SDS011;11108;49.988;8.182;2023-04-24T06:49:50;1.63;;;1.53;;
21886;SDS011;11108;49.988;8.182;2023-04-24T06:52:17;1.83;;;1.70;;
21886;SDS011;11108;49.988;8.182;2023-04-24T06:54:42;1.57;;;1.47;;
21886;SDS011;11108;49.988;8.182;2023-04-24T06:57:08;1.20;;;1.20;;
21886;SDS011;11108;49.988;8.182;2023-04-24T06:59:33;1.90;;;1.80;;
21886;SDS011;11108;49.988;8.182;2023-04-24T07:01:58;1.50;;;1.40;;
21886;SDS011;11108;49.988;8.182;2023-04-24T07:04:23;1.63;;;1.53;;
21886;SDS011;11108;49.988;8.182;2023-04-24T07:06:50;1.83;;;1.50;;
21886;SDS011;11108;49.988;8.182;2023-04-24T07:09:16;1.47;;;1.30;;
21886;SDS011;11108;49.988;8.182;2023-04-24T07:11:43;1.60;;;1.50;;
21886;SDS011;11108;49.988;8.182;2023-04-24T07:14:09;1.73;;;1.63;;
21886;SDS011;11108;49.988;8.182;2023-04-24T07:16:34;1.57;;;1.47;;
21886;SDS011;11108;49.988;8.182;2023-04-24T07:19:00;2.90;;;1.47;;
21886;SDS011;11108;49.988;8.182;2023-04-24T07:21:25;1.43;;;1.43;;
21886;SDS011;11108;49.988;8.182;2023-04-24T07:23:50;1.80;;;1.47;;
21886;SDS011;11108;49.988;8.182;2023-04-24T07:26:16;1.80;;;1.70;;
21886;SDS011;11108;49.988;8.182;2023-04-24T07:28:41;1.50;;;1.40;;
21886;SDS011;11108;49.988;8.182;2023-04-24T07:31:08;1.60;;;1.50;;
21886;SDS011;11108;49.988;8.182;2023-04-24T07:33:33;1.70;;;1.63;;
21886;SDS011;11108;49.988;8.182;2023-04-24T07:35:59;1.53;;;1.40;;
21886;SDS011;11108;49.988;8.182;2023-04-24T07:38:24;2.80;;;1.43;;
21886;SDS011;11108;49.988;8.182;2023-04-24T07:40:50;4.03;;;1.97;;
21886;SDS011;11108;49.988;8.182;2023-04-24T07:43:16;2.00;;;1.57;;
21886;SDS011;11108;49.988;8.182;2023-04-24T07:45:41;2.60;;;1.50;;
21886;SDS011;11108;49.988;8.182;2023-04-24T07:48:07;4.83;;;1.90;;
21886;SDS011;11108;49.988;8.182;2023-04-24T07:50:34;2.60;;;1.73;;
21886;SDS011;11108;49.988;8.182;2023-04-24T07:52:59;1.47;;;1.37;;
21886;SDS011;11108;49.988;8.182;2023-04-24T07:55:25;2.23;;;1.70;;
21886;SDS011;11108;49.988;8.182;2023-04-24T07:57:50;1.90;;;1.47;;
21886;SDS011;11108;49.988;8.182;2023-04-24T08:00:16;3.77;;;1.47;;
21886;SDS011;11108;49.988;8.182;2023-04-24T08:02:41;1.37;;;1.33;;
21886;SDS011;11108;49.988;8.182;2023-04-24T08:05:06;1.73;;;1.53;;
21886;SDS011;11108;49.988;8.182;2023-04-24T08:07:32;1.27;;;1.23;;
21886;SDS011;11108;49.988;8.182;2023-04-24T08:09:57;2.30;;;1.50;;
21886;SDS011;11108;49.988;8.182;2023-04-24T08:12:24;3.13;;;1.83;;
21886;SDS011;11108;49.988;8.182;2023-04-24T08:14:49;2.67;;;1.40;;
21886;SDS011;11108;49.988;8.182;2023-04-24T08:17:14;1.63;;;1.30;;
21886;SDS011;11108;49.988;8.182;2023-04-24T08:19:41;4.37;;;1.50;;
21886;SDS011;11108;49.988;8.182;2023-04-24T08:22:12;2.00;;;1.63;;
21886;SDS011;11108;49.988;8.182;2023-04-24T08:24:37;1.60;;;1.17;;
21886;SDS011;11108;49.988;8.182;2023-04-24T08:27:02;2.17;;;1.40;;
21886;SDS011;11108;49.988;8.182;2023-04-24T08:29:28;1.63;;;1.50;;
21886;SDS011;11108;49.988;8.182;2023-04-24T08:31:53;1.40;;;1.30;;
21886;SDS011;11108;49.988;8.182;2023-04-24T08:34:19;1.67;;;1.50;;
21886;SDS011;11108;49.988;8.182;2023-04-24T08:36:45;1.37;;;1.33;;
21886;SDS011;11108;49.988;8.182;2023-04-24T08:39:10;1.57;;;1.30;;
21886;SDS011;11108;49.988;8.182;2023-04-24T08:41:35;1.20;;;1.10;;
21886;SDS011;11108;49.988;8.182;2023-04-24T08:44:02;1.63;;;1.40;;
21886;SDS011;11108;49.988;8.182;2023-04-24T08:46:27;2.23;;;1.67;;
21886;SDS011;11108;49.988;8.182;2023-04-24T08:48:52;1.60;;;1.17;;
21886;SDS011;11108;49.988;8.182;2023-04-24T08:51:18;1.80;;;1.20;;
21886;SDS011;11108;49.988;8.182;2023-04-24T08:53:45;1.00;;;1.00;;
21886;SDS011;11108;49.988;8.182;2023-04-24T08:56:10;1.20;;;1.10;;
21886;SDS011;11108;49.988;8.182;2023-04-24T08:58:36;1.10;;;1.10;;
21886;SDS011;11108;49.988;8.182;2023-04-24T09:01:01;1.13;;;1.13;;
21886;SDS011;11108;49.988;8.182;2023-04-24T09:03:28;1.60;;;1.50;;
21886;SDS011;11108;49.988;8.182;2023-04-24T09:05:53;1.87;;;1.60;;
21886;SDS011;11108;49.988;8.182;2023-04-24T09:08:20;1.30;;;1.20;;
21886;SDS011;11108;49.988;8.182;2023-04-24T09:10:47;1.23;;;1.13;;
21886;SDS011;11108;49.988;8.182;2023-04-24T09:13:12;2.47;;;1.27;;
21886;SDS011;11108;49.988;8.182;2023-04-24T09:15:38;1.73;;;1.40;;
21886;SDS011;11108;49.988;8.182;2023-04-24T09:18:03;1.73;;;1.20;;
21886;SDS011;11108;49.988;8.182;2023-04-24T09:20:29;1.47;;;1.30;;
21886;SDS011;11108;49.988;8.182;2023-04-24T09:22:54;1.53;;;1.40;;
21886;SDS011;11108;49.988;8.182;2023-04-24T09:25:21;1.20;;;1.20;;
21886;SDS011;11108;49.988;8.182;2023-04-24T09:27:46;1.20;;;1.10;;
21886;SDS011;11108;49.988;8.182;2023-04-24T09:30:12;1.57;;;1.47;;
21886;SDS011;11108;49.988;8.182;2023-04-24T09:32:37;1.00;;;0.90;;
21886;SDS011;11108;49.988;8.182;2023-04-24T09:35:06;1.33;;;1.23;;
21886;SDS011;11108;49.988;8.182;2023-04-24T09:37:34;1.30;;;1.30;;
21886;SDS011;11108;49.988;8.182;2023-04-24T09:42:37;1.20;;;1.20;;
21886;SDS011;11108;49.988;8.182;2023-04-24T09:45:03;1.37;;;1.27;;
21886;SDS011;11108;49.988;8.182;2023-04-24T09:47:35;2.70;;;1.33;;
21886;SDS011;11108;49.988;8.182;2023-04-24T09:50:01;1.43;;;1.33;;
21886;SDS011;11108;49.988;8.182;2023-04-24T09:52:33;5.17;;;1.30;;
21886;SDS011;11108;49.988;8.182;2023-04-24T09:54:58;1.40;;;1.30;;
21886;SDS011;11108;49.988;8.182;2023-04-24T09:57:23;1.37;;;1.27;;
21886;SDS011;11108;49.988;8.182;2023-04-24T09:59:49;1.53;;;1.27;;
21886;SDS011;11108;49.988;8.182;2023-04-24T10:02:18;1.10;;;1.10;;
21886;SDS011;11108;49.988;8.182;2023-04-24T10:04:53;1.40;;;1.30;;
21886;SDS011;11108;49.988;8.182;2023-04-24T10:07:19;3.07;;;1.33;;
21886;SDS011;11108;49.988;8.182;2023-04-24T10:09:44;1.43;;;1.20;;
21886;SDS011;11108;49.988;8.182;2023-04-24T10:12:09;1.43;;;1.30;;
21886;SDS011;11108;49.988;8.182;2023-04-24T10:14:35;2.50;;;1.27;;
21886;SDS011;11108;49.988;8.182;2023-04-24T10:17:01;1.13;;;1.10;;
21886;SDS011;11108;49.988;8.182;2023-04-24T10:19:26;1.53;;;1.43;;
21886;SDS011;11108;49.988;8.182;2023-04-24T10:21:51;2.67;;;1.17;;
21886;SDS011;11108;49.988;8.182;2023-04-24T10:24:17;2.03;;;1.30;;
21886;SDS011;11108;49.988;8.182;2023-04-24T10:26:44;2.97;;;1.40;;
21886;SDS011;11108;49.988;8.182;2023-04-24T10:29:12;2.30;;;1.60;;
21886;SDS011;11108;49.988;8.182;2023-04-24T10:31:40;3.17;;;1.67;;
21886;SDS011;11108;49.988;8.182;2023-04-24T10:34:05;2.30;;;1.77;;
21886;SDS011;11108;49.988;8.182;2023-04-24T10:36:31;2.67;;;1.77;;
21886;SDS011;11108;49.988;8.182;2023-04-24T10:38:57;3.17;;;1.60;;
21886;SDS011;11108;49.988;8.182;2023-04-24T10:41:24;1.80;;;1.70;;
21886;SDS011;11108;49.988;8.182;2023-04-24T10:46:31;3.17;;;1.93;;
21886;SDS011;11108;49.988;8.182;2023-04-24T10:48:57;4.90;;;1.70;;
21886;SDS011;11108;49.988;8.182;2023-04-24T10:51:23;1.93;;;1.70;;
21886;SDS011;11108;49.988;8.182;2023-04-24T10:53:51;3.30;;;1.80;;
21886;SDS011;11108;49.988;8.182;2023-04-24T10:56:17;2.03;;;1.60;;
21886;SDS011;11108;49.988;8.182;2023-04-24T10:58:43;3.47;;;1.70;;
21886;SDS011;11108;49.988;8.182;2023-04-24T11:03:54;1.97;;;1.77;;
21886;SDS011;11108;49.988;8.182;2023-04-24T11:06:20;2.83;;;1.47;;
21886;SDS011;11108;49.988;8.182;2023-04-24T11:08:57;1.57;;;1.47;;
21886;SDS011;11108;49.988;8.182;2023-04-24T11:11:23;3.17;;;1.70;;
21886;SDS011;11108;49.988;8.182;2023-04-24T11:16:25;5.43;;;1.50;;
21886;SDS011;11108;49.988;8.182;2023-04-24T11:19:07;5.27;;;1.60;;
21886;SDS011;11108;49.988;8.182;2023-04-24T11:21:43;3.30;;;1.50;;
21886;SDS011;11108;49.988;8.182;2023-04-24T11:27:09;3.77;;;1.33;;
21886;SDS011;11108;49.988;8.182;2023-04-24T11:32:14;2.67;;;1.70;;
21886;SDS011;11108;49.988;8.182;2023-04-24T11:34:39;1.60;;;1.50;;
21886;SDS011;11108;49.988;8.182;2023-04-24T11:37:05;4.90;;;1.50;;
21886;SDS011;11108;49.988;8.182;2023-04-24T11:39:35;3.43;;;1.70;;
21886;SDS011;11108;49.988;8.182;2023-04-24T11:42:03;2.80;;;1.50;;
21886;SDS011;11108;49.988;8.182;2023-04-24T11:44:31;2.90;;;1.40;;
21886;SDS011;11108;49.988;8.182;2023-04-24T11:46:56;5.33;;;1.13;;
21886;SDS011;11108;49.988;8.182;2023-04-24T11:49:22;2.17;;;1.57;;
21886;SDS011;11108;49.988;8.182;2023-04-24T11:51:47;3.33;;;1.43;;
21886;SDS011;11108;49.988;8.182;2023-04-24T11:54:12;1.70;;;1.30;;
21886;SDS011;11108;49.988;8.182;2023-04-24T11:56:37;4.10;;;1.77;;
21886;SDS011;11108;49.988;8.182;2023-04-24T11:59:04;1.40;;;1.30;;
21886;SDS011;11108;49.988;8.182;2023-04-24T12:01:29;1.17;;;1.10;;
21886;SDS011;11108;49.988;8.182;2023-04-24T12:03:59;2.70;;;1.20;;
21886;SDS011;11108;49.988;8.182;2023-04-24T12:06:24;1.83;;;1.17;;
21886;SDS011;11108;49.988;8.182;2023-04-24T12:08:50;1.53;;;1.10;;
21886;SDS011;11108;49.988;8.182;2023-04-24T12:11:17;1.80;;;1.50;;
21886;SDS011;11108;49.988;8.182;2023-04-24T12:13:45;0.97;;;0.93;;
21886;SDS011;11108;49.988;8.182;2023-04-24T12:16:10;2.33;;;1.57;;
21886;SDS011;11108;49.988;8.182;2023-04-24T12:18:41;2.40;;;1.47;;
21886;SDS011;11108;49.988;8.182;2023-04-24T12:23:42;2.10;;;1.63;;
21886;SDS011;11108;49.988;8.182;2023-04-24T12:26:07;1.70;;;1.33;;
21886;SDS011;11108;49.988;8.182;2023-04-24T12:28:36;1.33;;;1.17;;
21886;SDS011;11108;49.988;8.182;2023-04-24T12:31:01;2.03;;;1.43;;
21886;SDS011;11108;49.988;8.182;2023-04-24T12:33:27;5.10;;;1.80;;
21886;SDS011;11108;49.988;8.182;2023-04-24T12:35:52;2.20;;;1.20;;
21886;SDS011;11108;49.988;8.182;2023-04-24T12:38:25;1.40;;;1.23;;
21886;SDS011;11108;49.988;8.182;2023-04-24T12:41:01;2.57;;;1.33;;
21886;SDS011;11108;49.988;8.182;2023-04-24T12:43:26;2.17;;;1.37;;
21886;SDS011;11108;49.988;8.182;2023-04-24T12:45:51;1.53;;;1.30;;
21886;SDS011;11108;49.988;8.182;2023-04-24T12:48:17;1.10;;;1.10;;
21886;SDS011;11108;49.988;8.182;2023-04-24T12:50:42;2.40;;;1.40;;
21886;SDS011;11108;49.988;8.182;2023-04-24T12:53:08;2.93;;;1.50;;
21886;SDS011;11108;49.988;8.182;2023-04-24T12:55:33;1.60;;;1.47;;
21886;SDS011;11108;49.988;8.182;2023-04-24T12:57:59;1.53;;;1.40;;
21886;SDS011;11108;49.988;8.182;2023-04-24T13:00:24;1.67;;;1.47;;
21886;SDS011;11108;49.988;8.182;2023-04-24T13:02:49;2.40;;;1.23;;
21886;SDS011;11108;49.988;8.182;2023-04-24T13:05:14;2.33;;;1.43;;
21886;SDS011;11108;49.988;8.182;2023-04-24T13:07:40;2.10;;;1.43;;
21886;SDS011;11108;49.988;8.182;2023-04-24T13:10:05;1.70;;;1.40;;
21886;SDS011;11108;49.988;8.182;2023-04-24T13:12:31;1.43;;;1.30;;
21886;SDS011;11108;49.988;8.182;2023-04-24T13:14:57;1.50;;;1.40;;
21886;SDS011;11108;49.988;8.182;2023-04-24T13:17:22;2.50;;;1.50;;
21886;SDS011;11108;49.988;8.182;2023-04-24T13:19:49;1.73;;;1.30;;
21886;SDS011;11108;49.988;8.182;2023-04-24T13:22:15;1.57;;;1.47;;
21886;SDS011;11108;49.988;8.182;2023-04-24T13:24:40;1.63;;;1.43;;
21886;SDS011;11108;49.988;8.182;2023-04-24T13:27:06;1.20;;;1.20;;
21886;SDS011;11108;49.988;8.182;2023-04-24T13:29:31;2.17;;;1.67;;
21886;SDS011;11108;49.988;8.182;2023-04-24T13:31:57;1.03;;;1.03;;
21886;SDS011;11108;49.988;8.182;2023-04-24T13:34:22;1.77;;;1.57;;
21886;SDS011;11108;49.988;8.182;2023-04-24T13:36:49;1.33;;;1.20;;
21886;SDS011;11108;49.988;8.182;2023-04-24T13:39:14;1.60;;;1.40;;
21886;SDS011;11108;49.988;8.182;2023-04-24T13:41:41;1.73;;;1.40;;
21886;SDS011;11108;49.988;8.182;2023-04-24T13:44:07;1.33;;;1.23;;
21886;SDS011;11108;49.988;8.182;2023-04-24T13:46:32;2.07;;;1.20;;
21886;SDS011;11108;49.988;8.182;2023-04-24T13:48:57;1.60;;;1.37;;
21886;SDS011;11108;49.988;8.182;2023-04-24T13:51:23;1.50;;;1.40;;
21886;SDS011;11108;49.988;8.182;2023-04-24T13:53:48;1.73;;;1.63;;
21886;SDS011;11108;49.988;8.182;2023-04-24T13:56:13;1.60;;;1.50;;
21886;SDS011;11108;49.988;8.182;2023-04-24T13:58:39;1.70;;;1.60;;
21886;SDS011;11108;49.988;8.182;2023-04-24T14:01:04;1.67;;;1.40;;
21886;SDS011;11108;49.988;8.182;2023-04-24T14:03:30;1.20;;;1.20;;
21886;SDS011;11108;49.988;8.182;2023-04-24T14:05:55;1.67;;;1.43;;
21886;SDS011;11108;49.988;8.182;2023-04-24T14:08:20;3.47;;;1.37;;
21886;SDS011;11108;49.988;8.182;2023-04-24T14:10:49;1.33;;;1.23;;
21886;SDS011;11108;49.988;8.182;2023-04-24T14:13:15;1.53;;;1.17;;
21886;SDS011;11108;49.988;8.182;2023-04-24T14:15:40;1.40;;;1.30;;
21886;SDS011;11108;49.988;8.182;2023-04-24T14:18:05;3.37;;;1.50;;
21886;SDS011;11108;49.988;8.182;2023-04-24T14:20:31;2.83;;;1.67;;
21886;SDS011;11108;49.988;8.182;2023-04-24T14:22:56;1.23;;;1.17;;
21886;SDS011;11108;49.988;8.182;2023-04-24T14:25:24;1.73;;;1.50;;
21886;SDS011;11108;49.988;8.182;2023-04-24T14:27:49;2.37;;;1.43;;
21886;SDS011;11108;49.988;8.182;2023-04-24T14:30:14;1.50;;;1.40;;
21886;SDS011;11108;49.988;8.182;2023-04-24T14:32:40;2.43;;;1.40;;
21886;SDS011;11108;49.988;8.182;2023-04-24T14:35:05;1.67;;;1.57;;
21886;SDS011;11108;49.988;8.182;2023-04-24T14:37:31;1.60;;;1.50;;
21886;SDS011;11108;49.988;8.182;2023-04-24T14:39:56;2.50;;;1.63;;
21886;SDS011;11108;49.988;8.182;2023-04-24T14:42:21;1.20;;;1.10;;
21886;SDS011;11108;49.988;8.182;2023-04-24T14:44:47;2.97;;;1.50;;
21886;SDS011;11108;49.988;8.182;2023-04-24T14:47:12;1.60;;;1.50;;
21886;SDS011;11108;49.988;8.182;2023-04-24T14:49:37;1.00;;;1.00;;
21886;SDS011;11108;49.988;8.182;2023-04-24T14:52:02;1.30;;;1.30;;
21886;SDS011;11108;49.988;8.182;2023-04-24T14:54:28;1.33;;;1.30;;
21886;SDS011;11108;49.988;8.182;2023-04-24T14:56:54;1.40;;;1.30;;